createdAt,value
2023-05-14T00:01:16.072Z,100490.38
2023-05-14T00:03:42.871Z,100492.92
2023-05-14T00:06:10.883Z,100495.04
2023-05-14T00:08:37.565Z,100502.70
2023-05-14T00:11:04.314Z,100505.21
2023-05-14T00:13:30.986Z,100509.40
2023-05-14T00:15:57.661Z,100509.38
2023-05-14T00:18:24.485Z,100508.96
2023-05-14T00:20:54.726Z,100509.77
2023-05-14T00:23:22.450Z,100509.42
2023-05-14T00:25:49.111Z,100513.09
2023-05-14T00:28:16.089Z,100510.86
2023-05-14T00:30:42.736Z,100508.60
2023-05-14T00:33:09.615Z,100511.55
2023-05-14T00:35:37.086Z,100506.41
2023-05-14T00:38:03.883Z,100510.54
2023-05-14T00:40:30.726Z,100516.52
2023-05-14T00:42:57.435Z,100520.44
2023-05-14T00:45:24.692Z,100521.80
2023-05-14T00:47:51.767Z,100524.63
2023-05-14T00:50:18.487Z,100525.33
2023-05-14T00:52:45.131Z,100525.41
2023-05-14T00:55:12.967Z,100521.14
2023-05-14T00:57:40.703Z,100521.35
2023-05-14T01:00:08.989Z,100516.34
2023-05-14T01:02:35.706Z,100518.38
2023-05-14T01:05:02.413Z,100513.98
2023-05-14T01:07:35.091Z,100512.64
2023-05-14T01:10:15.998Z,100512.98
2023-05-14T01:13:07.495Z,100510.80
2023-05-14T01:15:35.097Z,100514.64
2023-05-14T01:18:11.639Z,100513.92
2023-05-14T01:20:38.350Z,100520.19
2023-05-14T01:23:05.060Z,100519.45
2023-05-14T01:25:32.160Z,100525.36
2023-05-14T01:28:15.456Z,100529.83
2023-05-14T01:31:04.817Z,100528.94
2023-05-14T01:33:31.488Z,100526.25
2023-05-14T01:35:58.595Z,100524.02
2023-05-14T01:38:25.362Z,100522.17
2023-05-14T01:40:52.097Z,100523.15
2023-05-14T01:43:18.975Z,100519.27
2023-05-14T01:45:45.782Z,100520.38
2023-05-14T01:48:12.621Z,100517.96
2023-05-14T01:50:39.420Z,100516.47
2023-05-14T01:53:06.514Z,100510.48
2023-05-14T01:55:33.260Z,100510.17
2023-05-14T01:57:59.952Z,100515.84
2023-05-14T02:00:27.183Z,100511.69
2023-05-14T02:02:53.802Z,100510.34
2023-05-14T02:05:21.277Z,100504.77
2023-05-14T02:07:48.014Z,100507.98
2023-05-14T02:10:15.933Z,100509.77
2023-05-14T02:12:42.738Z,100508.04
2023-05-14T02:15:11.073Z,100505.22
2023-05-14T02:17:38.082Z,100504.23
2023-05-14T02:20:05.630Z,100504.65
2023-05-14T02:22:32.289Z,100504.39
2023-05-14T02:24:58.927Z,100501.63
2023-05-14T02:27:26.076Z,100499.77
2023-05-14T02:29:52.896Z,100497.16
2023-05-14T02:32:19.636Z,100494.71
2023-05-14T02:34:46.350Z,100493.63
2023-05-14T02:37:13.081Z,100494.52
2023-05-14T02:39:39.819Z,100493.22
2023-05-14T02:42:07.053Z,100496.15
2023-05-14T02:44:33.810Z,100495.87
2023-05-14T02:47:00.622Z,100493.77
2023-05-14T02:49:27.420Z,100496.14
2023-05-14T02:51:57.046Z,100498.67
2023-05-14T02:54:23.844Z,100503.20
2023-05-14T02:56:50.710Z,100498.02
2023-05-14T02:59:17.483Z,100493.77
2023-05-14T03:01:44.768Z,100494.92
2023-05-14T03:04:12.104Z,100498.23
2023-05-14T03:06:38.728Z,100499.42
2023-05-14T03:09:05.487Z,100500.92
2023-05-14T03:11:32.233Z,100502.32
2023-05-14T03:13:58.874Z,100501.84
2023-05-14T03:16:25.543Z,100501.11
2023-05-14T03:18:52.279Z,100508.24
2023-05-14T03:21:19.120Z,100509.59
2023-05-14T03:23:45.781Z,100509.45
2023-05-14T03:26:12.458Z,100507.26
2023-05-14T03:28:40.808Z,100507.90
2023-05-14T03:31:07.588Z,100504.91
2023-05-14T03:33:34.371Z,100509.63
2023-05-14T03:36:01.061Z,100512.79
2023-05-14T03:38:27.719Z,100519.77
2023-05-14T03:40:54.381Z,100518.92
2023-05-14T03:43:21.185Z,100520.11
2023-05-14T03:45:52.512Z,100522.04
2023-05-14T03:48:20.126Z,100522.52
2023-05-14T03:50:46.953Z,100526.67
2023-05-14T03:53:13.679Z,100529.73
2023-05-14T03:55:40.550Z,100529.55
2023-05-14T03:58:13.954Z,100529.68
2023-05-14T04:00:41.851Z,100532.50
2023-05-14T04:03:09.728Z,100533.70
2023-05-14T04:05:36.508Z,100538.02
2023-05-14T04:08:03.350Z,100537.12
2023-05-14T04:10:30.974Z,100533.63
2023-05-14T04:12:59.454Z,100536.48
2023-05-14T04:15:30.632Z,100541.08
2023-05-14T04:17:57.584Z,100544.52
2023-05-14T04:20:24.460Z,100545.96
2023-05-14T04:22:51.265Z,100545.67
2023-05-14T04:25:18.647Z,100545.84
2023-05-14T04:27:45.486Z,100548.84
2023-05-14T04:30:12.538Z,100544.33
2023-05-14T04:32:39.451Z,100545.63
2023-05-14T04:35:06.847Z,100544.73
2023-05-14T04:37:33.503Z,100545.42
2023-05-14T04:40:00.438Z,100543.92
2023-05-14T04:42:27.071Z,100546.02
2023-05-14T04:44:53.745Z,100547.92
2023-05-14T04:47:21.216Z,100550.32
2023-05-14T04:49:48.097Z,100552.17
2023-05-14T04:52:15.003Z,100551.89
2023-05-14T04:54:41.715Z,100548.35
2023-05-14T04:57:08.420Z,100549.98
2023-05-14T04:59:35.123Z,100551.00
2023-05-14T05:02:01.833Z,100552.94
2023-05-14T05:04:28.495Z,100555.08
2023-05-14T05:06:55.484Z,100553.75
2023-05-14T05:09:22.140Z,100558.15
2023-05-14T05:11:48.803Z,100554.98
2023-05-14T05:14:15.491Z,100558.13
2023-05-14T05:16:42.265Z,100566.69
2023-05-14T05:19:09.246Z,100563.83
2023-05-14T05:21:36.407Z,100556.65
2023-05-14T05:24:03.497Z,100560.52
2023-05-14T05:26:30.422Z,100562.04
2023-05-14T05:31:28.281Z,100568.08
2023-05-14T05:33:55.024Z,100575.02
2023-05-14T05:36:21.662Z,100569.83
2023-05-14T05:38:48.350Z,100572.02
2023-05-14T05:41:15.008Z,100569.14
2023-05-14T05:43:41.665Z,100567.72
2023-05-14T05:46:08.478Z,100569.15
2023-05-14T05:48:35.221Z,100573.30
2023-05-14T05:51:02.131Z,100572.91
2023-05-14T05:53:28.782Z,100576.02
2023-05-14T05:55:55.483Z,100573.86
2023-05-14T05:58:22.147Z,100582.36
2023-05-14T06:00:48.859Z,100583.08
2023-05-14T06:03:16.163Z,100579.82
2023-05-14T06:05:43.054Z,100580.77
2023-05-14T06:08:09.979Z,100583.13
2023-05-14T06:10:37.582Z,100587.95
2023-05-14T06:13:04.203Z,100588.61
2023-05-14T06:15:30.843Z,100591.67
2023-05-14T06:17:57.870Z,100594.79
2023-05-14T06:20:24.833Z,100592.64
2023-05-14T06:22:51.679Z,100596.02
2023-05-14T06:25:18.559Z,100596.36
2023-05-14T06:27:45.374Z,100594.84
2023-05-14T06:30:12.688Z,100592.77
2023-05-14T06:32:39.396Z,100592.58
2023-05-14T06:35:06.702Z,100592.69
2023-05-14T06:37:33.585Z,100591.66
2023-05-14T06:40:01.172Z,100586.84
2023-05-14T06:42:27.993Z,100585.73
2023-05-14T06:44:54.839Z,100586.55
2023-05-14T06:47:21.780Z,100585.02
2023-05-14T06:49:48.565Z,100589.66
2023-05-14T06:52:15.209Z,100593.02
2023-05-14T06:54:41.868Z,100589.05
2023-05-14T06:57:08.483Z,100589.90
2023-05-14T06:59:35.114Z,100596.50
2023-05-14T07:02:02.490Z,100594.98
2023-05-14T07:04:29.328Z,100592.16
2023-05-14T07:06:55.981Z,100592.86
2023-05-14T07:09:22.625Z,100591.54
2023-05-14T07:11:49.322Z,100593.33
2023-05-14T07:14:16.009Z,100589.88
2023-05-14T07:16:42.848Z,100585.49
2023-05-14T07:19:09.603Z,100586.40
2023-05-14T07:21:36.306Z,100581.15
2023-05-14T07:24:03.033Z,100582.14
2023-05-14T07:26:30.476Z,100576.93
2023-05-14T07:28:57.355Z,100575.22
2023-05-14T07:31:24.192Z,100577.42
2023-05-14T07:33:51.086Z,100572.52
2023-05-14T07:36:21.722Z,100569.13
2023-05-14T07:38:49.226Z,100563.80
2023-05-14T07:41:16.242Z,100560.70
2023-05-14T07:43:42.980Z,100558.82
2023-05-14T07:46:09.628Z,100557.58
2023-05-14T07:48:36.433Z,100559.29
2023-05-14T07:51:03.099Z,100554.42
2023-05-14T07:53:29.787Z,100556.62
2023-05-14T07:55:56.484Z,100552.58
2023-05-14T07:58:23.649Z,100554.07
2023-05-14T08:00:50.601Z,100551.14
2023-05-14T08:03:17.426Z,100552.85
2023-05-14T08:05:44.163Z,100543.52
2023-05-14T08:08:10.976Z,100541.91
2023-05-14T08:10:37.730Z,100538.44
2023-05-14T08:13:04.516Z,100526.10
2023-05-14T08:15:31.316Z,100528.61
2023-05-14T08:18:03.306Z,100528.09
2023-05-14T08:20:31.217Z,100521.64
2023-05-14T08:22:58.239Z,100519.94
2023-05-14T08:25:24.983Z,100510.52
2023-05-14T08:27:51.804Z,100503.73
2023-05-14T08:30:18.561Z,100503.91
2023-05-14T08:32:45.325Z,100501.94
2023-05-14T08:35:12.122Z,100496.30
2023-05-14T08:37:39.102Z,100486.49
2023-05-14T08:40:08.096Z,100478.71
2023-05-14T08:42:35.004Z,100480.00
2023-05-14T08:45:02.718Z,100478.60
2023-05-14T08:47:32.832Z,100470.80
2023-05-14T08:50:04.521Z,100472.62
2023-05-14T08:52:31.360Z,100471.59
2023-05-14T08:54:59.356Z,100469.11
2023-05-14T08:57:26.680Z,100462.46
2023-05-14T08:59:53.872Z,100464.55
2023-05-14T09:02:25.030Z,100456.93
2023-05-14T09:04:57.133Z,100452.95
2023-05-14T09:07:24.168Z,100448.59
2023-05-14T09:09:51.568Z,100441.78
2023-05-14T09:12:18.298Z,100437.24
2023-05-14T09:14:45.553Z,100433.39
2023-05-14T09:17:12.821Z,100428.70
2023-05-14T09:19:43.864Z,100424.96
2023-05-14T09:22:15.478Z,100420.99
2023-05-14T09:24:42.479Z,100421.46
2023-05-14T09:27:09.811Z,100409.98
2023-05-14T09:29:37.199Z,100404.30
2023-05-14T09:32:05.358Z,100402.52
2023-05-14T09:34:34.179Z,100401.89
2023-05-14T09:37:02.860Z,100403.61
2023-05-14T09:39:29.674Z,100402.20
2023-05-14T09:41:56.426Z,100397.45
2023-05-14T09:44:23.629Z,100394.17
2023-05-14T09:46:50.535Z,100392.85
2023-05-14T09:49:17.402Z,100389.17
2023-05-14T09:51:44.149Z,100392.00
2023-05-14T09:54:10.917Z,100383.10
2023-05-14T09:56:37.701Z,100378.98
2023-05-14T09:59:04.397Z,100379.30
2023-05-14T10:01:31.602Z,100377.56
2023-05-14T10:03:58.664Z,100377.68
2023-05-14T10:06:28.139Z,100372.21
2023-05-14T10:09:01.474Z,100370.48
2023-05-14T10:11:30.935Z,100367.45
2023-05-14T10:14:18.845Z,100365.63
2023-05-14T10:16:49.271Z,100359.67
2023-05-14T10:19:17.875Z,100357.27
2023-05-14T10:21:56.644Z,100351.10
2023-05-14T10:24:23.361Z,100348.27
2023-05-14T10:26:50.086Z,100348.66
2023-05-14T10:29:16.820Z,100340.09
2023-05-14T10:31:51.580Z,100335.94
2023-05-14T10:34:44.672Z,100338.46
2023-05-14T10:37:12.256Z,100336.48
2023-05-14T10:39:52.240Z,100339.08
2023-05-14T10:42:23.161Z,100335.22
2023-05-14T10:45:09.840Z,100333.36
2023-05-14T10:47:37.228Z,100333.48
2023-05-14T10:50:05.365Z,100334.16
2023-05-14T10:52:32.172Z,100333.71
2023-05-14T10:55:03.206Z,100332.92
2023-05-14T10:57:31.672Z,100331.33
2023-05-14T10:59:59.975Z,100326.84
2023-05-14T11:02:39.802Z,100325.83
2023-05-14T11:05:13.752Z,100324.81
2023-05-14T11:07:42.095Z,100318.95
2023-05-14T11:10:09.793Z,100319.50
2023-05-14T11:12:37.716Z,100319.59
2023-05-14T11:15:11.904Z,100319.89
2023-05-14T11:17:39.044Z,100313.40
2023-05-14T11:20:09.840Z,100313.16
2023-05-14T11:22:37.099Z,100313.66
2023-05-14T11:25:04.428Z,100312.08
2023-05-14T11:27:39.393Z,100310.35
2023-05-14T11:30:15.204Z,100309.12
2023-05-14T11:32:42.233Z,100303.50
2023-05-14T11:35:09.254Z,100298.42
2023-05-14T11:37:36.158Z,100297.21
2023-05-14T11:40:02.961Z,100290.97
2023-05-14T11:42:29.692Z,100285.38
2023-05-14T11:44:56.814Z,100280.63
2023-05-14T11:47:23.465Z,100283.09
2023-05-14T11:49:50.244Z,100280.70
2023-05-14T11:52:19.736Z,100283.05
2023-05-14T11:54:46.584Z,100280.81
2023-05-14T11:57:16.373Z,100279.91
2023-05-14T11:59:43.156Z,100280.85
2023-05-14T12:02:17.440Z,100281.63
2023-05-14T12:04:44.239Z,100278.64
2023-05-14T12:07:12.864Z,100277.46
2023-05-14T12:09:49.369Z,100274.23
2023-05-14T12:12:19.017Z,100274.35
2023-05-14T12:14:45.745Z,100268.34
2023-05-14T12:17:17.214Z,100262.25
2023-05-14T12:19:44.530Z,100261.27
2023-05-14T12:22:11.709Z,100260.70
2023-05-14T12:24:39.284Z,100259.05
2023-05-14T12:27:06.945Z,100256.85
2023-05-14T12:29:38.668Z,100251.50
2023-05-14T12:32:09.456Z,100251.38
2023-05-14T12:34:37.692Z,100246.30
2023-05-14T12:37:05.842Z,100244.43
2023-05-14T12:39:33.261Z,100239.89
2023-05-14T12:42:00.180Z,100234.65
2023-05-14T12:44:26.956Z,100235.90
2023-05-14T12:46:53.726Z,100235.05
2023-05-14T12:49:20.651Z,100232.48
2023-05-14T12:51:47.393Z,100234.27
2023-05-14T12:54:16.138Z,100233.58
2023-05-14T12:56:42.877Z,100231.55
2023-05-14T12:59:09.614Z,100228.51
2023-05-14T13:01:37.714Z,100231.67
2023-05-14T13:04:05.688Z,100228.01
2023-05-14T13:06:32.657Z,100225.82
2023-05-14T13:09:01.803Z,100232.53
2023-05-14T13:11:30.383Z,100231.20
2023-05-14T13:13:57.551Z,100232.45
2023-05-14T13:16:25.719Z,100232.83
2023-05-14T13:18:52.432Z,100231.00
2023-05-14T13:21:19.249Z,100227.81
2023-05-14T13:23:46.045Z,100232.63
2023-05-14T13:26:12.730Z,100232.95
2023-05-14T13:28:39.475Z,100232.43
2023-05-14T13:31:10.814Z,100229.39
2023-05-14T13:33:39.723Z,100235.07
2023-05-14T13:36:06.988Z,100231.55
2023-05-14T13:38:33.998Z,100231.27
2023-05-14T13:41:03.840Z,100228.98
2023-05-14T13:43:34.109Z,100227.23
2023-05-14T13:46:01.358Z,100226.17
2023-05-14T13:48:28.276Z,100226.81
2023-05-14T13:50:55.027Z,100225.95
2023-05-14T13:53:23.010Z,100225.52
2023-05-14T13:55:50.405Z,100221.16
2023-05-14T13:58:17.229Z,100220.76
2023-05-14T14:00:44.020Z,100211.86
2023-05-14T14:03:10.784Z,100209.77
2023-05-14T14:05:37.709Z,100211.14
2023-05-14T14:08:21.870Z,100215.39
2023-05-14T14:10:50.820Z,100215.86
2023-05-14T14:13:17.508Z,100212.04
2023-05-14T14:15:44.536Z,100209.42
2023-05-14T14:18:11.440Z,100206.40
2023-05-14T14:20:38.330Z,100203.08
2023-05-14T14:23:05.069Z,100206.29
2023-05-14T14:25:31.762Z,100204.08
2023-05-14T14:27:58.555Z,100202.98
2023-05-14T14:30:25.346Z,100206.13
2023-05-14T14:32:52.246Z,100205.42
2023-05-14T14:35:19.326Z,100203.02
2023-05-14T14:37:49.233Z,100198.63
2023-05-14T14:40:16.833Z,100197.80
2023-05-14T14:42:43.618Z,100190.56
2023-05-14T14:45:10.748Z,100188.99
2023-05-14T14:47:37.389Z,100187.98
2023-05-14T14:50:04.492Z,100186.75
2023-05-14T14:52:31.404Z,100182.16
2023-05-14T14:54:58.130Z,100182.97
2023-05-14T14:57:24.893Z,100185.52
2023-05-14T14:59:51.621Z,100179.72
2023-05-14T15:02:18.383Z,100179.67
2023-05-14T15:04:45.034Z,100174.53
2023-05-14T15:07:11.761Z,100172.36
2023-05-14T15:09:38.733Z,100169.95
2023-05-14T15:12:06.065Z,100168.89
2023-05-14T15:14:32.805Z,100165.94
2023-05-14T15:16:59.613Z,100163.48
2023-05-14T15:19:26.358Z,100162.51
2023-05-14T15:21:53.016Z,100154.77
2023-05-14T15:24:19.803Z,100149.63
2023-05-14T15:26:46.812Z,100144.33
2023-05-14T15:29:13.606Z,100142.66
2023-05-14T15:31:41.415Z,100140.46
2023-05-14T15:34:08.275Z,100141.02
2023-05-14T15:36:34.958Z,100133.27
2023-05-14T15:39:01.667Z,100130.99
2023-05-14T15:41:28.880Z,100128.33
2023-05-14T15:43:56.248Z,100125.61
2023-05-14T15:46:24.100Z,100122.48
2023-05-14T15:48:50.921Z,100120.39
2023-05-14T15:51:17.605Z,100119.80
2023-05-14T15:53:44.269Z,100118.93
2023-05-14T15:56:11.051Z,100115.54
2023-05-14T15:58:37.756Z,100116.89
2023-05-14T16:01:04.734Z,100113.00
2023-05-14T16:03:31.606Z,100112.75
2023-05-14T16:05:58.573Z,100114.44
2023-05-14T16:08:25.410Z,100113.05
2023-05-14T16:10:52.026Z,100109.67
2023-05-14T16:13:19.177Z,100110.93
2023-05-14T16:15:45.892Z,100112.91
2023-05-14T16:18:12.625Z,100110.77
2023-05-14T16:20:39.367Z,100111.45
2023-05-14T16:23:06.083Z,100112.84
2023-05-14T16:25:32.775Z,100112.23
2023-05-14T16:27:59.457Z,100108.48
2023-05-14T16:30:26.193Z,100111.02
2023-05-14T16:32:52.984Z,100109.65
2023-05-14T16:35:19.735Z,100109.11
2023-05-14T16:37:46.500Z,100110.80
2023-05-14T16:40:13.548Z,100109.96
2023-05-14T16:42:40.466Z,100114.00
2023-05-14T16:45:08.248Z,100107.67
2023-05-14T16:47:34.947Z,100111.67
2023-05-14T16:50:01.972Z,100112.98
2023-05-14T16:52:28.817Z,100110.97
2023-05-14T16:54:55.463Z,100109.79
2023-05-14T16:57:22.103Z,100110.36
2023-05-14T16:59:48.791Z,100110.70
2023-05-14T17:02:15.564Z,100112.78
2023-05-14T17:04:42.384Z,100113.42
2023-05-14T17:07:09.502Z,100113.22
2023-05-14T17:09:36.319Z,100113.13
2023-05-14T17:12:03.282Z,100116.61
2023-05-14T17:14:29.961Z,100114.33
2023-05-14T17:16:56.611Z,100115.44
2023-05-14T17:19:23.321Z,100117.30
2023-05-14T17:21:50.032Z,100115.55
2023-05-14T17:24:16.722Z,100117.68
2023-05-14T17:26:43.440Z,100118.24
2023-05-14T17:29:10.065Z,100115.67
2023-05-14T17:31:36.786Z,100116.54
2023-05-14T17:34:03.441Z,100117.80
2023-05-14T17:36:31.628Z,100118.86
2023-05-14T17:38:58.273Z,100118.98
2023-05-14T17:41:24.957Z,100121.60
2023-05-14T17:43:52.535Z,100122.50
2023-05-14T17:48:41.627Z,100118.73
2023-05-14T17:51:08.164Z,100123.78
2023-05-14T17:53:34.991Z,100123.65
2023-05-14T17:56:01.409Z,100128.94
2023-05-14T17:58:28.142Z,100124.39
2023-05-14T18:00:54.963Z,100128.98
2023-05-14T18:03:21.595Z,100131.76
2023-05-14T18:05:48.798Z,100130.77
2023-05-14T18:08:16.919Z,100131.88
2023-05-14T18:10:44.032Z,100138.60
2023-05-14T18:13:10.584Z,100134.33
2023-05-14T18:15:38.125Z,100137.75
2023-05-14T18:18:05.028Z,100138.27
2023-05-14T18:20:33.328Z,100137.11
2023-05-14T18:23:00.585Z,100134.27
2023-05-14T18:25:27.491Z,100134.15
2023-05-14T18:27:53.930Z,100134.63
2023-05-14T18:30:20.697Z,100134.60
2023-05-14T18:32:47.279Z,100132.32
2023-05-14T18:35:14.113Z,100136.45
2023-05-14T18:37:41.180Z,100136.35
2023-05-14T18:40:08.323Z,100137.27
2023-05-14T18:42:35.656Z,100134.20
2023-05-14T18:45:03.451Z,100132.48
2023-05-14T18:47:30.373Z,100133.02
2023-05-14T18:49:58.997Z,100130.50
2023-05-14T18:52:26.093Z,100135.19
2023-05-14T18:54:53.905Z,100129.80
2023-05-14T18:57:20.822Z,100131.61
2023-05-14T18:59:47.362Z,100135.17
2023-05-14T19:02:13.845Z,100137.29
2023-05-14T19:04:51.121Z,100135.63
2023-05-14T19:07:18.918Z,100137.61
2023-05-14T19:09:45.495Z,100136.89
2023-05-14T19:12:12.299Z,100134.44
2023-05-14T19:14:38.993Z,100136.52
2023-05-14T19:17:05.512Z,100137.02
2023-05-14T19:19:32.514Z,100139.64
2023-05-14T19:22:03.382Z,100141.49
2023-05-14T19:24:30.920Z,100142.91
2023-05-14T19:26:58.297Z,100143.60
2023-05-14T19:29:24.950Z,100143.79
2023-05-14T19:31:53.108Z,100147.59
2023-05-14T19:34:19.881Z,100143.83
2023-05-14T19:36:48.163Z,100145.17
2023-05-14T19:39:14.894Z,100143.86
2023-05-14T19:41:41.407Z,100142.83
2023-05-14T19:44:07.935Z,100141.93
2023-05-14T19:46:34.645Z,100142.09
2023-05-14T19:49:01.279Z,100143.33
2023-05-14T19:51:28.116Z,100140.25
2023-05-14T19:53:54.672Z,100138.63
2023-05-14T19:56:21.927Z,100140.61
2023-05-14T19:58:48.605Z,100135.45
2023-05-14T20:01:15.394Z,100134.70
2023-05-14T20:03:42.493Z,100131.58
2023-05-14T20:06:09.025Z,100131.36
2023-05-14T20:08:35.495Z,100131.30
2023-05-14T20:11:02.614Z,100126.39
2023-05-14T20:13:31.389Z,100131.23
2023-05-14T20:15:58.230Z,100132.14
2023-05-14T20:18:24.918Z,100133.55
2023-05-14T20:20:51.418Z,100135.36
2023-05-14T20:23:18.175Z,100136.15
2023-05-14T20:25:44.787Z,100132.63
2023-05-14T20:28:11.408Z,100130.55
2023-05-14T20:30:38.024Z,100124.66
2023-05-14T20:33:05.995Z,100122.33
2023-05-14T20:35:33.122Z,100126.41
2023-05-14T20:37:59.871Z,100128.75
2023-05-14T20:40:27.163Z,100126.80
2023-05-14T20:42:53.743Z,100124.25
2023-05-14T20:45:20.701Z,100119.20
2023-05-14T20:47:47.223Z,100117.21
2023-05-14T20:50:13.887Z,100115.94
2023-05-14T20:52:41.175Z,100120.48
2023-05-14T20:55:08.318Z,100120.83
2023-05-14T20:57:35.009Z,100123.37
2023-05-14T21:00:06.387Z,100119.98
2023-05-14T21:02:33.703Z,100119.38
2023-05-14T21:05:00.451Z,100118.23
2023-05-14T21:07:28.832Z,100123.21
2023-05-14T21:09:55.496Z,100125.11
2023-05-14T21:12:22.467Z,100123.33
2023-05-14T21:14:48.973Z,100117.21
2023-05-14T21:17:15.616Z,100117.11
2023-05-14T21:19:42.071Z,100112.39
2023-05-14T21:22:08.530Z,100117.23
2023-05-14T21:24:35.351Z,100114.64
2023-05-14T21:27:02.400Z,100113.53
2023-05-14T21:29:29.171Z,100110.71
2023-05-14T21:31:55.823Z,100107.86
2023-05-14T21:34:22.351Z,100104.70
2023-05-14T21:36:48.894Z,100109.05
2023-05-14T21:39:15.403Z,100111.73
2023-05-14T21:41:41.856Z,100114.36
2023-05-14T21:44:08.508Z,100110.38
2023-05-14T21:46:35.390Z,100110.95
2023-05-14T21:49:02.219Z,100107.55
2023-05-14T21:51:29.203Z,100109.66
2023-05-14T21:53:55.716Z,100108.48
2023-05-14T21:56:22.884Z,100113.50
2023-05-14T21:58:49.342Z,100115.23
2023-05-14T22:01:15.918Z,100116.34
2023-05-14T22:03:42.792Z,100112.39
2023-05-14T22:06:09.575Z,100110.07
2023-05-14T22:08:36.186Z,100110.98
2023-05-14T22:11:02.881Z,100105.05
2023-05-14T22:13:30.006Z,100098.89
2023-05-14T22:16:09.195Z,100099.60
2023-05-14T22:18:39.942Z,100097.13
2023-05-14T22:21:06.348Z,100092.58
2023-05-14T22:23:32.808Z,100091.98
2023-05-14T22:25:59.275Z,100092.27
2023-05-14T22:28:25.772Z,100095.17
2023-05-14T22:30:52.327Z,100089.98
2023-05-14T22:33:19.163Z,100091.29
2023-05-14T22:35:45.642Z,100091.50
2023-05-14T22:38:13.457Z,100087.97
2023-05-14T22:40:40.205Z,100087.51
2023-05-14T22:43:07.066Z,100083.66
2023-05-14T22:45:34.053Z,100089.52
2023-05-14T22:48:00.676Z,100090.40
2023-05-14T22:50:27.248Z,100087.85
2023-05-14T22:52:53.809Z,100089.00
2023-05-14T22:55:20.584Z,100087.35
2023-05-14T22:57:46.992Z,100083.52
2023-05-14T23:00:13.931Z,100083.05
2023-05-14T23:02:40.750Z,100083.41
2023-05-14T23:05:08.080Z,100083.06
2023-05-14T23:07:34.552Z,100080.41
2023-05-14T23:10:01.316Z,100079.52
2023-05-14T23:12:28.028Z,100077.64
2023-05-14T23:14:54.442Z,100076.59
2023-05-14T23:17:21.249Z,100074.11
2023-05-14T23:19:47.813Z,100076.23
2023-05-14T23:22:14.577Z,100078.41
2023-05-14T23:24:41.028Z,100081.45
2023-05-14T23:27:07.493Z,100081.89
2023-05-14T23:29:34.061Z,100083.79
2023-05-14T23:32:00.668Z,100081.98
2023-05-14T23:34:27.416Z,100083.04
2023-05-14T23:36:53.906Z,100083.02
2023-05-14T23:39:20.960Z,100080.80
2023-05-14T23:41:47.396Z,100080.39
2023-05-14T23:44:14.468Z,100081.49
2023-05-14T23:46:40.951Z,100083.26
2023-05-14T23:49:08.616Z,100083.47
2023-05-14T23:51:36.342Z,100084.78
2023-05-14T23:54:02.980Z,100086.98
2023-05-14T23:56:29.729Z,100082.23
2023-05-14T23:58:56.331Z,100082.73
